Time;durP1;ratioP1;P1;durP2;ratioP2;P2;SDS_P1;SDS_P2;PMS_P1;PMS_P2;Temp;Humidity;BMP_temperature;BMP_pressure;BME280_temperature;BME280_humidity;BME280_pressure;Samples;Min_cycle;Max_cycle;Signal;HPM_P1;HPM_P2
2022/01/22 00:01:17;;;;;;;;;;;;;;;-3.48;100.00;98303.25;1744547;82;20485;-71
2022/01/22 00:03:43;;;;;;;;;;;;;;;-3.47;100.00;98300.84;1744838;82;20968;-72
2022/01/22 00:06:10;;;;;;;;;;;;;;;-3.46;100.00;98307.80;1744518;81;20124;-72
2022/01/22 00:08:36;;;;;;;;;;;;;;;-3.45;100.00;98312.62;1744775;81;20442;-73
2022/01/22 00:11:03;;;;;;;;;;;;;;;-3.46;100.00;98309.67;1744587;82;20447;-70
2022/01/22 00:16:17;;;;;;;;;;;;;;;-3.46;100.00;98307.80;1744541;81;20127;-73
2022/01/22 00:18:45;;;;;;;;;;;;;;;-3.46;100.00;98310.48;1744519;81;20411;-73
2022/01/22 00:21:11;;;;;;;;;;;;;;;-3.46;100.00;98315.03;1744752;81;20099;-73
2022/01/22 00:23:40;;;;;;;;;;;;;;;-3.46;100.00;98311.82;1745026;82;20129;-73
2022/01/22 00:26:05;;;;;;;;;;;;;;;-3.44;100.00;98318.27;1744966;81;20422;-74
2022/01/22 00:28:32;;;;;;;;;;;;;;;-3.45;100.00;98309.95;1744732;82;22127;-73
2022/01/22 00:30:58;;;;;;;;;;;;;;;-3.44;100.00;98313.72;1744761;82;20522;-73
2022/01/22 00:33:24;;;;;;;;;;;;;;;-3.43;100.00;98315.34;1745061;82;20099;-73
2022/01/22 00:35:50;;;;;;;;;;;;;;;-3.42;100.00;98314.80;1744607;82;20143;-72
2022/01/22 00:38:16;;;;;;;;;;;;;;;-3.44;100.00;98308.34;1744988;82;20470;-69
2022/01/22 00:40:49;;;;;;;;;;;;;;;-3.45;100.00;98312.09;1744787;82;22113;-69
2022/01/22 00:43:11;;;;;;;;;;;;;;;-3.43;100.00;98310.50;1744932;81;20083;-70
2022/01/22 00:45:37;;;;;;;;;;;;;;;-3.44;100.00;98310.22;1744802;82;20119;-69
2022/01/22 00:48:04;;;;;;;;;;;;;;;-3.45;100.00;98309.41;1744897;82;20477;-69
2022/01/22 00:50:30;;;;;;;;;;;;;;;-3.44;100.00;98313.72;1744716;81;20083;-69
2022/01/22 00:52:56;;;;;;;;;;;;;;;-3.44;100.00;98307.55;1744588;82;21508;-69
2022/01/22 00:55:23;;;;;;;;;;;;;;;-3.45;100.00;98303.23;1744593;82;20095;-69
2022/01/22 00:57:49;;;;;;;;;;;;;;;-3.46;100.00;98298.94;1744967;82;20111;-69
2022/01/22 01:00:16;;;;;;;;;;;;;;;-3.45;100.00;98304.58;1744689;82;20142;-69
2022/01/22 01:02:42;;;;;;;;;;;;;;;-3.47;100.00;98302.72;1744731;81;20119;-69
2022/01/22 01:05:09;;;;;;;;;;;;;;;-3.50;100.00;98304.03;1744663;82;21583;-69
2022/01/22 01:07:37;;;;;;;;;;;;;;;-3.51;100.00;98299.73;1744622;81;20083;-69
2022/01/22 01:10:04;;;;;;;;;;;;;;;-3.52;100.00;98301.33;1744721;81;20083;-74
2022/01/22 01:12:31;;;;;;;;;;;;;;;-3.52;100.00;98298.64;1744862;81;20364;-75
2022/01/22 01:15:18;;;;;;;;;;;;;;;-3.50;100.00;98299.20;1744605;82;20095;-75
2022/01/22 01:34:20;;;;;;;;;;;;;;;-3.57;100.00;98304.77;1744863;82;20083;-74
2022/01/22 01:36:46;;;;;;;;;;;;;;;-3.58;100.00;98308.52;1744626;81;20088;-73
2022/01/22 01:39:18;;;;;;;;;;;;;;;-3.58;100.00;98308.52;1744340;81;20084;-73
2022/01/22 01:42:00;;;;;;;;;;;;;;;-3.56;100.00;98313.62;1744808;81;20084;-72
2022/01/22 01:44:23;;;;;;;;;;;;;;;-3.54;100.00;98320.36;1744949;81;20563;-72
2022/01/22 01:47:05;;;;;;;;;;;;;;;-3.51;100.00;98317.70;1744617;81;20706;-72
2022/01/22 01:49:33;;;;;;;;;;;;;;;-3.48;100.00;98318.00;1744878;82;20087;-72
2022/01/22 01:52:03;;;;;;;;;;;;;;;-3.45;100.00;98321.48;1744448;81;20792;-75
2022/01/22 01:54:36;;;;;;;;;;;;;;;-3.43;100.00;98320.70;1744775;81;20489;-74
2022/01/22 01:59:43;;;;;;;;;;;;;;;-3.40;100.00;98331.45;1744667;81;20429;-75
2022/01/22 02:02:12;;;;;;;;;;;;;;;-3.40;100.00;98314.02;1744571;81;20088;-76
2022/01/22 02:04:40;;;;;;;;;;;;;;;-3.40;100.00;98314.83;1744652;82;20449;-72
2022/01/22 02:07:07;;;;;;;;;;;;;;;-3.41;100.00;98314.55;1744627;82;20083;-76
2022/01/22 02:09:37;;;;;;;;;;;;;;;-3.38;100.00;98314.04;1744619;81;20575;-76
2022/01/22 02:12:18;;;;;;;;;;;;;;;-3.38;100.00;98311.89;1719445;82;20119;-77
2022/01/22 02:25:54;;;;;;;;;;;;;;;-3.42;100.00;98316.14;1744811;82;20485;-74
2022/01/22 02:28:18;;;;;;;;;;;;;;;-3.43;100.00;98322.05;1744602;81;20171;-74
2022/01/22 02:30:47;;;;;;;;;;;;;;;-3.43;100.00;98320.70;1744906;82;20079;-73
2022/01/22 02:33:39;;;;;;;;;;;;;;;-3.44;100.00;98328.47;1735679;82;20099;-73
2022/01/22 02:36:16;;;;;;;;;;;;;;;-3.44;100.00;98325.79;1744578;81;20464;-73
2022/01/22 02:38:47;;;;;;;;;;;;;;;-3.45;100.00;98338.93;1744540;81;20095;-72
2022/01/22 02:41:05;;;;;;;;;;;;;;;-3.44;100.00;98347.26;1744518;82;20111;-72
2022/01/22 02:43:33;;;;;;;;;;;;;;;-3.45;100.00;98346.17;1744555;81;20171;-73
2022/01/22 02:46:00;;;;;;;;;;;;;;;-3.43;100.00;98350.22;1744526;81;20123;-73
2022/01/22 02:48:27;;;;;;;;;;;;;;;-3.41;100.00;98349.96;1744555;82;21193;-72
2022/01/22 02:50:53;;;;;;;;;;;;;;;-3.39;100.00;98347.84;1744885;82;20107;-72
2022/01/22 02:53:19;;;;;;;;;;;;;;;-3.38;100.00;98344.90;1738385;81;20155;-72
2022/01/22 02:55:46;;;;;;;;;;;;;;;-3.34;100.00;98345.20;1727987;82;20095;-72
2022/01/22 02:58:13;;;;;;;;;;;;;;;-3.36;100.00;98342.77;1728075;83;20107;-72
2022/01/22 03:00:41;;;;;;;;;;;;;;;-3.37;100.00;98353.23;1728028;83;21140;-72
2022/01/22 03:03:07;;;;;;;;;;;;;;;-3.38;100.00;98356.97;1728054;83;20119;-72
2022/01/22 03:05:34;;;;;;;;;;;;;;;-3.39;100.00;98353.20;1728470;82;20119;-72
2022/01/22 03:08:06;;;;;;;;;;;;;;;-3.41;100.00;98350.77;1728049;83;20114;-74
2022/01/22 03:10:30;;;;;;;;;;;;;;;-3.41;100.00;98352.12;1719151;82;20087;-73
2022/01/22 03:18:09;;;;;;;;;;;;;;;-3.44;100.00;98351.81;1698955;84;20448;-73
2022/01/22 03:23:12;;;;;;;;;;;;;;;-3.43;100.00;98353.44;1699162;84;20101;-73
2022/01/22 03:28:27;;;;;;;;;;;;;;;-3.43;100.00;98350.22;1698953;84;20097;-75
2022/01/22 03:30:51;;;;;;;;;;;;;;;-3.42;100.00;98349.69;1681329;84;20097;-75
2022/01/22 03:33:21;;;;;;;;;;;;;;;-3.43;100.00;98351.56;1698930;84;20299;-75
2022/01/22 03:35:53;;;;;;;;;;;;;;;-3.40;100.00;98354.27;1698896;84;20085;-75
2022/01/22 03:38:15;;;;;;;;;;;;;;;-3.38;100.00;98354.29;1698300;84;21785;-74
2022/01/22 03:40:41;;;;;;;;;;;;;;;-3.35;100.00;98357.81;1698981;84;20097;-74
2022/01/22 03:43:07;;;;;;;;;;;;;;;-3.32;100.00;98357.83;1699216;84;20141;-74
2022/01/22 03:45:33;;;;;;;;;;;;;;;-3.28;100.00;98364.84;1698977;84;20449;-74
2022/01/22 03:47:59;;;;;;;;;;;;;;;-3.26;100.00;98365.40;1699324;84;20109;-74
2022/01/22 03:50:26;;;;;;;;;;;;;;;-3.23;99.62;98364.89;1698948;84;21553;-74
2022/01/22 03:52:52;;;;;;;;;;;;;;;-3.21;99.27;98370.28;1697186;84;20086;-74
2022/01/22 03:57:55;;;;;;;;;;;;;;;-3.19;98.53;98364.13;1681096;84;20450;-71
2022/01/22 04:00:22;;;;;;;;;;;;;;;-3.20;97.97;98357.13;1689494;85;20097;-71
2022/01/22 04:05:31;;;;;;;;;;;;;;;-3.22;97.68;98372.69;1705124;83;20099;-70
2022/01/22 04:08:06;;;;;;;;;;;;;;;-3.22;97.06;98369.19;1718346;82;20095;-71
2022/01/22 04:10:26;;;;;;;;;;;;;;;-3.24;96.40;98373.47;1719143;82;20420;-74
2022/01/22 04:13:03;;;;;;;;;;;;;;;-3.22;97.44;98381.27;1718483;83;20119;-74
2022/01/22 04:15:29;;;;;;;;;;;;;;;-3.21;96.14;98395.78;1718487;82;21555;-74
2022/01/22 04:26:23;;;;;;;;;;;;;;;-3.24;94.95;98382.87;1678964;84;20086;-76
2022/01/22 04:28:32;;;;;;;;;;;;;;;-3.26;94.14;98383.66;1686724;84;21818;-76
2022/01/22 04:30:59;;;;;;;;;;;;;;;-3.27;93.97;98387.94;1689466;84;20133;-77
2022/01/22 04:33:25;;;;;;;;;;;;;;;-3.29;93.80;98382.82;1689489;84;20073;-70
2022/01/22 04:35:52;;;;;;;;;;;;;;;-3.32;93.30;98384.14;1689752;85;20139;-72
2022/01/22 04:38:19;;;;;;;;;;;;;;;-3.33;92.93;98384.39;1689511;84;20157;-73
2022/01/22 04:40:45;;;;;;;;;;;;;;;-3.34;92.54;98380.90;1689767;85;21457;-72
2022/01/22 04:43:11;;;;;;;;;;;;;;;-3.34;92.50;98384.11;1689498;85;20561;-73
2022/01/22 04:48:39;;;;;;;;;;;;;;;-3.35;93.27;98388.67;1689465;85;20152;-77
2022/01/22 04:56:23;;;;;;;;;;;;;;;-3.34;92.61;98384.11;1714919;83;20081;-72
2022/01/22 04:58:49;;;;;;;;;;;;;;;-3.34;92.65;98382.23;1714911;83;20090;-72
2022/01/22 05:01:16;;;;;;;;;;;;;;;-3.33;92.15;98387.88;1714836;83;20204;-72
2022/01/22 05:03:47;;;;;;;;;;;;;;;-3.35;92.02;98390.02;1714986;83;20126;-72
2022/01/22 05:06:31;;;;;;;;;;;;;;;-3.34;92.41;98387.61;1714949;83;21030;-74
2022/01/22 05:09:09;;;;;;;;;;;;;;;-3.35;91.56;98387.33;1656295;86;20153;-72
2022/01/22 05:11:37;;;;;;;;;;;;;;;-3.35;91.17;98385.17;1712655;83;20126;-72
2022/01/22 05:14:03;;;;;;;;;;;;;;;-3.36;91.66;98387.05;1714935;83;20097;-73
2022/01/22 05:16:30;;;;;;;;;;;;;;;-3.35;91.34;98391.35;1714985;83;20460;-72
2022/01/22 05:19:05;;;;;;;;;;;;;;;-3.35;91.32;98391.88;1713985;83;20977;-77
2022/01/22 05:21:32;;;;;;;;;;;;;;;-3.36;91.52;98393.76;1714995;83;20117;-70
2022/01/22 05:24:01;;;;;;;;;;;;;;;-3.34;91.78;98406.92;1720276;82;20162;-70
2022/01/22 05:29:20;;;;;;;;;;;;;;;-3.34;91.54;98409.61;1713964;83;20198;-69
2022/01/22 05:37:17;;;;;;;;;;;;;;;-3.34;91.78;98407.73;1712007;83;20502;-72
2022/01/22 05:39:43;;;;;;;;;;;;;;;-3.34;91.09;98407.73;1689950;83;20146;-70
2022/01/22 05:42:11;;;;;;;;;;;;;;;-3.35;90.58;98406.64;1714646;83;20142;-70
2022/01/22 05:44:37;;;;;;;;;;;;;;;-3.36;90.58;98408.52;1714319;83;21158;-71
2022/01/22 05:47:06;;;;;;;;;;;;;;;-3.37;90.63;98413.61;1714247;83;20097;-71
2022/01/22 05:49:37;;;;;;;;;;;;;;;-3.36;90.57;98419.25;1714330;83;20089;-71
2022/01/22 05:52:05;;;;;;;;;;;;;;;-3.38;90.57;98423.25;1714497;83;20142;-71
2022/01/22 05:59:57;;;;;;;;;;;;;;;-3.40;90.62;98424.84;1717600;83;20550;-74
2022/01/22 06:02:23;;;;;;;;;;;;;;;-3.40;90.47;98430.21;1717980;82;20143;-74
2022/01/22 06:04:51;;;;;;;;;;;;;;;-3.40;90.45;98436.92;1718217;82;20159;-76
2022/01/22 06:07:19;;;;;;;;;;;;;;;-3.39;90.80;98435.86;1731891;82;20172;-74
2022/01/22 06:10:14;;;;;;;;;;;;;;;-3.37;90.65;98447.16;1717669;83;21774;-73
2022/01/22 06:12:37;;;;;;;;;;;;;;;-3.38;90.45;98440.16;1719659;82;20152;-72
2022/01/22 06:14:50;;;;;;;;;;;;;;;-3.37;90.35;98444.47;1719057;82;20179;-73
2022/01/22 06:17:18;;;;;;;;;;;;;;;-3.37;90.45;98442.31;1717628;82;20144;-74
2022/01/22 06:19:47;;;;;;;;;;;;;;;-3.35;90.19;98439.66;1717081;82;20205;-74
2022/01/22 06:22:13;;;;;;;;;;;;;;;-3.35;89.98;98438.31;1717910;83;20991;-74
2022/01/22 06:24:40;;;;;;;;;;;;;;;-3.35;89.78;98439.66;1717230;83;20115;-75
2022/01/22 06:27:08;;;;;;;;;;;;;;;-3.34;89.72;98452.55;1694904;83;20232;-74
2022/01/22 06:29:36;;;;;;;;;;;;;;;-3.35;89.60;98442.34;1688945;84;20142;-72
2022/01/22 06:32:03;;;;;;;;;;;;;;;-3.33;89.46;98457.66;1688894;85;20179;-73
2022/01/22 06:34:33;;;;;;;;;;;;;;;-3.32;89.79;98455.25;1688962;85;21171;-72
2022/01/22 06:36:59;;;;;;;;;;;;;;;-3.29;89.73;98461.99;1688906;84;20129;-73
2022/01/22 06:39:27;;;;;;;;;;;;;;;-3.27;89.66;98465.77;1688912;85;20178;-73
2022/01/22 06:42:05;;;;;;;;;;;;;;;-3.24;89.40;98465.27;1679949;85;20135;-73
2022/01/22 06:44:42;;;;;;;;;;;;;;;-3.22;89.53;98462.61;1688244;84;20199;-74
2022/01/22 06:47:27;;;;;;;;;;;;;;;-3.17;89.55;98463.19;1688999;85;21118;-73
2022/01/22 06:49:55;;;;;;;;;;;;;;;-3.13;88.97;98466.46;1688735;85;20432;-74
2022/01/22 06:52:41;;;;;;;;;;;;;;;-3.09;89.03;98468.11;1689005;85;20097;-73
2022/01/22 06:55:12;;;;;;;;;;;;;;;-3.07;88.61;98468.13;1711492;82;21217;-75
2022/01/22 06:57:37;;;;;;;;;;;;;;;-3.07;88.12;98471.35;1727347;82;20197;-74
2022/01/22 07:00:07;;;;;;;;;;;;;;;-3.05;88.58;98473.25;1714286;83;20995;-73
2022/01/22 07:02:35;;;;;;;;;;;;;;;-3.02;88.65;98471.41;1689805;83;20488;-73
2022/01/22 07:05:03;;;;;;;;;;;;;;;-3.00;88.31;98476.80;1714292;83;20173;-74
2022/01/22 07:07:47;;;;;;;;;;;;;;;-2.97;87.97;98482.72;1713410;83;20160;-73
2022/01/22 07:10:13;;;;;;;;;;;;;;;-2.93;88.25;98486.52;1714379;83;20205;-74
2022/01/22 07:12:41;;;;;;;;;;;;;;;-2.91;87.62;98486.55;1714281;83;21161;-72
2022/01/22 07:15:08;;;;;;;;;;;;;;;-2.89;87.66;98487.11;1714167;83;21215;-73
2022/01/22 07:17:38;;;;;;;;;;;;;;;-2.85;87.57;98482.00;1690410;83;32739;-71
2022/01/22 07:20:13;;;;;;;;;;;;;;;-2.83;87.86;98487.40;1714603;82;20409;-71
2022/01/22 07:25:25;;;;;;;;;;;;;;;-2.76;87.33;98490.69;1714965;83;21166;-73
2022/01/22 07:27:55;;;;;;;;;;;;;;;-2.69;87.18;98486.45;1714832;83;20089;-71
2022/01/22 07:30:22;;;;;;;;;;;;;;;-2.64;86.98;98491.87;1717682;82;20166;-73
2022/01/22 07:32:49;;;;;;;;;;;;;;;-2.60;86.95;98494.33;1718288;82;20829;-71
2022/01/22 07:35:17;;;;;;;;;;;;;;;-2.55;86.48;98494.37;1714673;82;20217;-71
2022/01/22 07:37:45;;;;;;;;;;;;;;;-2.52;86.16;98493.86;1714146;83;22037;-71
2022/01/22 07:40:13;;;;;;;;;;;;;;;-2.48;86.15;98497.66;1712875;83;20185;-72
2022/01/22 07:42:44;;;;;;;;;;;;;;;-2.45;85.69;98499.83;1682802;85;20091;-72
2022/01/22 07:45:14;;;;;;;;;;;;;;;-2.42;85.91;98499.31;1647926;84;20135;-71
2022/01/22 07:47:41;;;;;;;;;;;;;;;-2.37;86.03;98497.20;1660554;85;20174;-72
2022/01/22 07:50:09;;;;;;;;;;;;;;;-2.29;86.07;98508.80;1694694;84;22310;-72
2022/01/22 07:52:36;;;;;;;;;;;;;;;-2.20;85.72;98509.13;1693500;84;20209;-74
2022/01/22 07:55:03;;;;;;;;;;;;;;;-2.15;85.36;98503.25;1662860;85;20167;-71
2022/01/22 07:57:30;;;;;;;;;;;;;;;-2.12;84.79;98502.73;1696674;83;20290;-71
2022/01/22 07:59:58;;;;;;;;;;;;;;;-2.08;84.43;98512.44;1691674;83;20151;-72
2022/01/22 08:02:25;;;;;;;;;;;;;;;-2.08;84.42;98516.47;1691475;85;21184;-71
2022/01/22 08:04:53;;;;;;;;;;;;;;;-2.04;84.75;98510.86;1662918;84;20524;-73
2022/01/22 08:07:43;;;;;;;;;;;;;;;-1.93;85.16;98521.14;1645740;87;20635;-73
2022/01/22 08:10:27;;;;;;;;;;;;;;;-1.87;83.61;98520.11;1646449;86;20177;-71
2022/01/22 08:12:55;;;;;;;;;;;;;;;-1.86;83.59;98523.08;1667386;85;20175;-72
2022/01/22 08:15:21;;;;;;;;;;;;;;;-1.88;83.51;98526.02;1691220;85;21134;-71
2022/01/22 08:17:49;;;;;;;;;;;;;;;-1.89;83.54;98528.97;1691396;85;20157;-72
2022/01/22 08:20:20;;;;;;;;;;;;;;;-1.90;83.93;98529.51;1668113;85;20207;-72
2022/01/22 08:22:54;;;;;;;;;;;;;;;-1.86;84.30;98532.48;1691305;85;20170;-71
2022/01/22 08:25:42;;;;;;;;;;;;;;;-1.83;84.10;98540.04;1691475;83;20137;-70
2022/01/22 08:31:02;;;;;;;;;;;;;;;-1.90;84.06;98526.81;1690904;83;20257;-70
2022/01/22 08:35:53;;;;;;;;;;;;;;;-1.96;83.53;98541.30;1691070;85;20175;-71
2022/01/22 08:38:21;;;;;;;;;;;;;;;-2.01;84.23;98539.39;1691170;83;20206;-70
2022/01/22 08:40:48;;;;;;;;;;;;;;;-2.02;83.84;98539.64;1691002;83;21501;-70
2022/01/22 08:43:15;;;;;;;;;;;;;;;-2.02;84.15;98549.88;1691124;85;20199;-69
2022/01/22 08:45:41;;;;;;;;;;;;;;;-2.00;84.50;98547.73;1691431;83;20488;-72
2022/01/22 08:48:08;;;;;;;;;;;;;;;-2.02;84.93;98551.21;1691343;85;20557;-71
2022/01/22 08:50:35;;;;;;;;;;;;;;;-2.04;84.76;98542.59;1691655;84;20166;-71
2022/01/22 08:53:02;;;;;;;;;;;;;;;-2.09;84.85;98559.22;1691628;84;22547;-71
2022/01/22 08:55:29;;;;;;;;;;;;;;;-2.15;85.28;98559.72;1691414;84;20892;-73
2022/01/22 08:57:55;;;;;;;;;;;;;;;-2.16;86.11;98557.28;1691486;83;20185;-72
2022/01/22 09:00:29;;;;;;;;;;;;;;;-2.18;86.31;98556.20;1656920;84;20476;-72
2022/01/22 09:02:58;;;;;;;;;;;;;;;-2.17;86.36;98561.04;1690503;84;20185;-72
2022/01/22 09:05:37;;;;;;;;;;;;;;;-2.18;86.95;98560.23;1676029;84;22680;-72
2022/01/22 09:08:08;;;;;;;;;;;;;;;-2.18;87.23;98560.23;1680069;85;20468;-73
2022/01/22 09:10:43;;;;;;;;;;;;;;;-2.18;87.34;98559.42;1689249;84;20163;-72
2022/01/22 09:13:11;;;;;;;;;;;;;;;-2.19;87.38;98561.83;1690220;84;20345;-74
2022/01/22 09:15:53;;;;;;;;;;;;;;;-2.24;87.73;98556.41;1690304;84;20217;-73
2022/01/22 09:18:20;;;;;;;;;;;;;;;-2.26;87.95;98562.05;1691666;85;21129;-73
2022/01/22 09:23:18;;;;;;;;;;;;;;;-2.25;88.28;98565.55;1678568;85;20174;-71
2022/01/22 09:25:45;;;;;;;;;;;;;;;-2.24;88.63;98562.60;1691173;85;20154;-71
2022/01/22 09:28:13;;;;;;;;;;;;;;;-2.23;88.50;98564.22;1691370;85;20185;-72
2022/01/22 09:30:42;;;;;;;;;;;;;;;-2.21;88.45;98562.09;1691331;83;21167;-73
2022/01/22 09:33:08;;;;;;;;;;;;;;;-2.17;88.68;98571.27;1691296;83;20130;-71
2022/01/22 09:35:37;;;;;;;;;;;;;;;-2.12;88.51;98564.58;1646728;84;20453;-71
2022/01/22 09:38:05;;;;;;;;;;;;;;;-2.08;88.56;98568.37;1689527;84;20184;-71
2022/01/22 09:40:40;;;;;;;;;;;;;;;-2.00;88.50;98568.44;1689974;84;20164;-71
2022/01/22 09:43:11;;;;;;;;;;;;;;;-1.95;88.91;98564.98;1691356;84;21147;-71
2022/01/22 09:45:57;;;;;;;;;;;;;;;-1.93;88.75;98562.84;1692123;84;20619;-71
2022/01/22 09:48:43;;;;;;;;;;;;;;;-1.98;88.14;98574.91;1692301;84;20149;-72
2022/01/22 09:51:20;;;;;;;;;;;;;;;-2.08;88.17;98572.95;1690978;84;20173;-72
2022/01/22 09:53:48;;;;;;;;;;;;;;;-2.15;88.88;98569.13;1685745;84;20433;-72
2022/01/22 09:56:33;;;;;;;;;;;;;;;-2.15;88.70;98575.04;1692011;84;20627;-72
2022/01/22 09:59:01;;;;;;;;;;;;;;;-2.09;89.41;98574.02;1689355;84;20169;-72
2022/01/22 10:01:34;;;;;;;;;;;;;;;-2.00;89.37;98576.51;1690688;84;20148;-73
2022/01/22 10:04:06;;;;;;;;;;;;;;;-1.91;89.68;98572.27;1696968;83;20171;-73
2022/01/22 10:06:49;;;;;;;;;;;;;;;-1.80;88.43;98577.19;1735079;82;20204;-75
2022/01/22 10:09:46;;;;;;;;;;;;;;;-1.68;88.57;98577.78;1739735;82;21520;-73
2022/01/22 10:12:21;;;;;;;;;;;;;;;-1.55;87.94;98577.86;1711059;84;20549;-72
2022/01/22 10:15:16;;;;;;;;;;;;;;;-1.54;85.14;98564.14;1707242;84;20162;-72
2022/01/22 10:17:49;;;;;;;;;;;;;;;-1.44;84.74;98566.89;1720569;82;20489;-72
2022/01/22 10:20:26;;;;;;;;;;;;;;;-0.98;85.45;98568.41;1740607;82;20496;-72
2022/01/22 10:22:56;;;;;;;;;;;;;;;-0.30;84.06;98566.38;1711261;83;21175;-72
2022/01/22 10:25:24;;;;;;;;;;;;;;;0.36;80.51;98562.27;1719420;83;20124;-71
2022/01/22 10:27:55;;;;;;;;;;;;;;;0.89;79.15;98562.09;1740499;82;20169;-70
2022/01/22 10:30:22;;;;;;;;;;;;;;;0.97;74.28;98564.22;1720281;83;20464;-74
2022/01/22 10:32:59;;;;;;;;;;;;;;;0.65;73.09;98563.25;1720054;83;20434;-73
2022/01/22 10:35:38;;;;;;;;;;;;;;;0.21;75.48;98563.64;1720255;83;21171;-72
2022/01/22 10:38:10;;;;;;;;;;;;;;;-0.19;77.25;98561.25;1676187;83;20123;-73
2022/01/22 10:40:38;;;;;;;;;;;;;;;-0.50;78.96;98565.00;1720223;83;20159;-72
2022/01/22 10:43:30;;;;;;;;;;;;;;;-0.78;80.65;98564.42;1720056;83;21889;-71
2022/01/22 10:46:09;;;;;;;;;;;;;;;-0.96;82.13;98565.45;1720017;83;20215;-72
2022/01/22 10:48:38;;;;;;;;;;;;;;;-1.15;83.81;98566.45;1720269;83;21772;-72
2022/01/22 10:51:12;;;;;;;;;;;;;;;-1.27;85.90;98574.78;1720388;83;20158;-71
2022/01/22 10:53:42;;;;;;;;;;;;;;;-1.31;86.39;98580.95;1720121;83;20114;-71
2022/01/22 10:56:11;;;;;;;;;;;;;;;-1.35;86.83;98576.09;1719727;83;20168;-71
2022/01/22 10:58:58;;;;;;;;;;;;;;;-1.40;87.56;98578.75;1718643;83;20187;-72
2022/01/22 11:01:26;;;;;;;;;;;;;;;-1.38;88.97;98573.92;1719861;83;21104;-72
2022/01/22 11:04:07;;;;;;;;;;;;;;;-1.35;88.73;98579.31;1719451;83;20151;-73
2022/01/22 11:06:33;;;;;;;;;;;;;;;-1.33;89.57;98578.52;1719260;83;20506;-73
2022/01/22 11:09:00;;;;;;;;;;;;;;;-1.25;89.73;98576.67;1719360;83;20232;-72
2022/01/22 11:11:26;;;;;;;;;;;;;;;-1.19;89.64;98571.59;1719585;83;20176;-72
2022/01/22 11:13:53;;;;;;;;;;;;;;;-1.17;88.55;98572.13;1719383;83;21153;-73
2022/01/22 11:16:19;;;;;;;;;;;;;;;-1.23;88.72;98581.80;1719788;82;20283;-72
2022/01/22 11:18:50;;;;;;;;;;;;;;;-1.31;88.56;98579.60;1719823;82;20150;-72
2022/01/22 11:21:16;;;;;;;;;;;;;;;-1.42;90.02;98582.78;1719328;83;20155;-73
2022/01/22 11:23:43;;;;;;;;;;;;;;;-1.48;90.38;98585.17;1719591;83;20445;-73
2022/01/22 11:26:10;;;;;;;;;;;;;;;-1.47;90.98;98579.52;1719518;83;21147;-73
2022/01/22 11:28:37;;;;;;;;;;;;;;;-1.46;91.23;98583.02;1719187;83;20092;-72
2022/01/22 11:31:03;;;;;;;;;;;;;;;-1.43;91.46;98583.84;1702566;83;20177;-74
2022/01/22 11:33:31;;;;;;;;;;;;;;;-1.53;91.21;98590.52;1690519;85;20224;-73
2022/01/22 11:36:07;;;;;;;;;;;;;;;-1.62;91.85;98597.45;1690657;84;20161;-73
2022/01/22 11:38:39;;;;;;;;;;;;;;;-1.63;91.91;98594.49;1690925;85;21084;-73
2022/01/22 11:41:13;;;;;;;;;;;;;;;-1.61;90.69;98593.16;1690679;84;20231;-73
2022/01/22 11:44:07;;;;;;;;;;;;;;;-1.56;91.15;98593.73;1698224;83;20465;-71
2022/01/22 11:46:44;;;;;;;;;;;;;;;-1.46;91.26;98601.87;1690810;83;20579;-73
2022/01/22 11:49:22;;;;;;;;;;;;;;;-1.46;89.65;98594.61;1695959;83;20150;-73
2022/01/22 11:51:50;;;;;;;;;;;;;;;-1.49;90.31;98600.51;1697356;83;21106;-74
2022/01/22 11:54:18;;;;;;;;;;;;;;;-1.52;90.43;98596.98;1707908;83;20149;-73
2022/01/22 11:56:48;;;;;;;;;;;;;;;-1.50;90.09;98596.73;1692183;83;20202;-73
2022/01/22 11:59:20;;;;;;;;;;;;;;;-1.50;90.17;98598.08;1704134;83;20186;-73
2022/01/22 12:01:56;;;;;;;;;;;;;;;-1.48;89.98;98604.01;1716533;83;20172;-73
2022/01/22 12:04:35;;;;;;;;;;;;;;;-1.49;89.45;98605.89;1716309;83;21945;-75
2022/01/22 12:07:09;;;;;;;;;;;;;;;-1.50;89.26;98613.69;1716373;83;20134;-75
2022/01/22 12:15:42;;;;;;;;;;;;;;;-1.52;89.10;98619.87;1702548;83;20469;-74
2022/01/22 12:18:15;;;;;;;;;;;;;;;-1.59;88.85;98619.28;1716692;83;21277;-73
2022/01/22 12:23:19;;;;;;;;;;;;;;;-1.54;90.56;98626.58;1706687;83;20121;-74
2022/01/22 12:25:48;;;;;;;;;;;;;;;-1.48;89.91;98628.23;1679675;85;20201;-74
2022/01/22 12:28:15;;;;;;;;;;;;;;;-1.48;89.82;98629.58;1689235;83;20162;-74
2022/01/22 12:30:47;;;;;;;;;;;;;;;-1.47;90.33;98629.33;1669910;84;21929;-72
2022/01/22 12:33:15;;;;;;;;;;;;;;;-1.43;90.75;98630.42;1688331;85;20132;-75
2022/01/22 12:35:48;;;;;;;;;;;;;;;-1.35;90.72;98633.17;1687683;83;20453;-75
2022/01/22 12:38:29;;;;;;;;;;;;;;;-1.32;90.55;98641.26;1687593;84;20145;-74
2022/01/22 12:41:01;;;;;;;;;;;;;;;-1.31;90.37;98642.34;1687406;84;20173;-73
2022/01/22 12:43:35;;;;;;;;;;;;;;;-1.42;89.58;98641.47;1703189;83;21129;-73
2022/01/22 12:45:58;;;;;;;;;;;;;;;-1.55;90.41;98644.61;1686820;84;20225;-74
2022/01/22 12:48:27;;;;;;;;;;;;;;;-1.57;90.99;98646.75;1687513;85;20146;-73
2022/01/22 12:50:53;;;;;;;;;;;;;;;-1.62;90.58;98648.06;1687916;85;20201;-73
2022/01/22 12:53:19;;;;;;;;;;;;;;;-1.71;91.13;98657.67;1669901;85;20201;-75
2022/01/22 12:58:23;;;;;;;;;;;;;;;-1.84;91.21;98663.52;1687610;83;20189;-74
2022/01/22 13:00:52;;;;;;;;;;;;;;;-1.85;92.33;98662.70;1687313;84;20153;-76
2022/01/22 13:03:33;;;;;;;;;;;;;;;-1.83;92.33;98665.14;1687313;85;20177;-73
2022/01/22 13:05:59;;;;;;;;;;;;;;;-1.86;92.41;98672.38;1687450;85;20458;-75
2022/01/22 13:08:29;;;;;;;;;;;;;;;-1.86;93.95;98674.53;1687618;85;21176;-74
2022/01/22 13:11:06;;;;;;;;;;;;;;;-1.83;93.90;98683.97;1669180;84;20193;-74
2022/01/22 13:13:32;;;;;;;;;;;;;;;-1.88;93.14;98683.93;1680634;83;20420;-75
2022/01/22 13:16:11;;;;;;;;;;;;;;;-1.89;93.44;98697.10;1715344;83;20566;-75
2022/01/22 13:18:43;;;;;;;;;;;;;;;-1.92;93.67;98700.30;1716201;83;20179;-76
2022/01/22 13:21:12;;;;;;;;;;;;;;;-1.97;93.94;98692.19;1716789;83;21783;-74
2022/01/22 13:23:39;;;;;;;;;;;;;;;-1.99;94.40;98700.51;1716602;83;20122;-80
2022/01/22 13:26:07;;;;;;;;;;;;;;;-2.02;94.42;98694.30;1716451;83;20190;-70
2022/01/22 13:28:36;;;;;;;;;;;;;;;-2.06;94.10;98698.55;1715571;83;20706;-85
2022/01/22 13:31:15;;;;;;;;;;;;;;;-2.09;94.44;98701.22;1700039;83;20159;-83
2022/01/22 13:33:50;;;;;;;;;;;;;;;-2.08;94.65;98708.22;1687998;85;21155;-87
2022/01/22 13:49:54;;;;;;;;;;;;;;;-2.17;94.05;98735.28;1687017;84;20129;-74
2022/01/22 13:52:21;;;;;;;;;;;;;;;-2.21;93.27;98742.77;1687457;85;20138;-73
2022/01/22 13:54:49;;;;;;;;;;;;;;;-2.25;93.68;98738.42;1687684;85;20472;-72
2022/01/22 13:57:19;;;;;;;;;;;;;;;-2.28;93.38;98744.30;1687310;85;20368;-77
2022/01/22 13:59:48;;;;;;;;;;;;;;;-2.29;93.47;98755.31;1687550;84;21865;-74
2022/01/22 14:04:54;;;;;;;;;;;;;;;-2.36;92.38;98758.22;1687691;85;20205;-80
2022/01/22 14:07:31;;;;;;;;;;;;;;;-2.39;92.48;98768.13;1687723;85;20442;-72
2022/01/22 14:10:08;;;;;;;;;;;;;;;-2.40;92.61;98763.81;1687463;84;20440;-72
2022/01/22 14:12:48;;;;;;;;;;;;;;;-2.42;92.24;98769.97;1691539;83;21109;-70
2022/01/22 14:15:16;;;;;;;;;;;;;;;-2.48;91.79;98770.97;1687849;84;20589;-73
2022/01/22 14:18:09;;;;;;;;;;;;;;;-2.48;92.79;98777.69;1706518;83;20140;-73
2022/01/22 14:20:42;;;;;;;;;;;;;;;-2.48;92.13;98780.38;1716169;83;20922;-73
2022/01/22 14:23:26;;;;;;;;;;;;;;;-2.48;92.76;98786.56;1716301;83;20175;-73
2022/01/22 14:25:59;;;;;;;;;;;;;;;-2.41;93.43;98790.41;1715498;83;21246;-73
2022/01/22 14:28:46;;;;;;;;;;;;;;;-2.39;92.83;98797.70;1715550;82;20165;-73
2022/01/22 14:31:22;;;;;;;;;;;;;;;-2.38;92.78;98795.29;1712152;83;20433;-72
2022/01/22 14:33:48;;;;;;;;;;;;;;;-2.36;92.62;98795.85;1715996;83;20168;-73
2022/01/22 14:36:16;;;;;;;;;;;;;;;-2.39;92.30;98803.07;1716188;83;20426;-73
2022/01/22 14:38:57;;;;;;;;;;;;;;;-2.45;91.93;98816.98;1716248;83;21138;-73
2022/01/22 14:44:29;;;;;;;;;;;;;;;-2.65;91.85;98824.76;1716612;83;20202;-74
2022/01/22 14:47:03;;;;;;;;;;;;;;;-2.76;91.78;98827.83;1716257;83;20172;-73
2022/01/22 14:49:38;;;;;;;;;;;;;;;-2.89;91.60;98836.26;1715643;83;20175;-74
2022/01/22 14:52:05;;;;;;;;;;;;;;;-3.01;91.46;98831.50;1716344;83;21388;-74
2022/01/22 14:54:35;;;;;;;;;;;;;;;-3.16;91.45;98827.23;1716510;83;20489;-74
2022/01/22 14:57:02;;;;;;;;;;;;;;;-3.27;91.57;98834.83;1710886;83;20498;-73
2022/01/22 14:59:29;;;;;;;;;;;;;;;-3.41;91.58;98835.14;1705024;83;20584;-72
2022/01/22 15:01:55;;;;;;;;;;;;;;;-3.53;92.17;98838.98;1705230;84;20163;-72